Time;durP1;ratioP1;P1;durP2;ratioP2;P2;SDS_P1;SDS_P2;PMS_P1;PMS_P2;Temp;Humidity;BMP_temperature;BMP_pressure;BME280_temperature;BME280_humidity;BME280_pressure;Samples;Min_cycle;Max_cycle;Signal;HPM_P1;HPM_P2
2023/08/13 00:00:16;;;;;;;;;;;19.30;65.80;;;18.52;60.02;96810.63;6088599;23;19920;-86
2023/08/13 00:03:22;;;;;;;;;;;19.30;65.60;;;18.55;59.98;96815.53;6103967;23;19921;-86
2023/08/13 00:06:03;;;;;;;;;;;19.30;65.70;;;18.54;59.96;96808.31;6113156;23;20363;-86
2023/08/13 00:09:07;;;;;;;;;;;19.30;65.70;;;18.53;59.77;96812.22;6111066;23;19924;-86
2023/08/13 00:12:21;;;;;;;;;;;19.30;65.70;;;18.52;60.12;96821.69;6085378;23;19927;-86
2023/08/13 00:15:18;;;;;;;;;;;19.30;65.90;;;18.53;59.78;96818.63;6112574;23;19928;-87
2023/08/13 00:18:31;;;;;;;;;;;19.30;65.70;;;18.52;59.94;96810.63;6112414;23;20264;-86
2023/08/13 00:21:10;;;;;;;;;;;19.20;65.40;;;18.50;59.90;96823.94;6072995;23;19944;-87
2023/08/13 00:23:53;;;;;;;;;;;;;;;;;;;;;
2023/08/13 00:27:33;;;;;;;;;;;;;;;;;;;;;
2023/08/13 00:30:30;;;;;;;;;;;19.20;65.50;;;18.49;60.12;96819.53;5991164;23;19922;-86
2023/08/13 00:33:17;;;;;;;;;;;19.20;65.60;;;18.46;60.16;96809.06;6037134;23;19921;-86
2023/08/13 00:36:15;;;;;;;;;;;19.20;65.60;;;18.47;60.17;96814.28;6092591;23;20256;-86
2023/08/13 00:38:55;;;;;;;;;;;19.20;65.80;;;18.46;60.18;96809.06;6089290;23;19921;-87
2023/08/13 00:41:36;;;;;;;;;;;19.20;65.70;;;18.46;59.95;96811.81;6088637;23;19920;-87
2023/08/13 00:44:49;;;;;;;;;;;19.20;65.60;;;18.42;60.20;96805.25;6112379;23;19920;-86
2023/08/13 00:47:24;;;;;;;;;;;19.20;65.70;;;18.44;59.95;96803.81;6088205;23;19920;-87
2023/08/13 00:50:07;;;;;;;;;;;19.20;65.50;;;18.41;59.93;96801.66;6137331;23;19927;-87
2023/08/13 00:53:13;;;;;;;;;;;19.20;65.40;;;18.39;59.94;96801.97;6111720;23;19921;-86
2023/08/13 00:56:13;;;;;;;;;;;19.20;65.50;;;18.41;59.98;96804.44;6110921;23;19921;-86
2023/08/13 00:58:55;;;;;;;;;;;19.20;65.80;;;18.40;60.05;96798.06;6111926;23;19924;-86
2023/08/13 01:01:31;;;;;;;;;;;19.20;65.70;;;18.37;59.90;96795.91;6112067;23;19925;-86
2023/08/13 01:04:40;;;;;;;;;;;19.20;65.50;;;18.39;59.77;96801.16;6088469;23;19921;-86
2023/08/13 01:07:50;;;;;;;;;;;19.10;65.50;;;18.38;59.71;96799.50;6100508;23;19921;-86
2023/08/13 05:05:14;;;;;;;;;;;19.00;65.00;;;18.23;59.40;96854.09;6196195;23;20358;-86
2023/08/13 05:08:35;;;;;;;;;;;19.00;65.20;;;18.23;59.98;96853.28;6167582;23;20335;-86
2023/08/13 05:22:21;;;;;;;;;;;19.00;66.20;;;18.35;60.13;96866.63;6075661;23;19980;-87
2023/08/13 05:25:37;;;;;;;;;;;;;;;;;;;;;
2023/08/13 05:28:55;;;;;;;;;;;19.00;66.50;;;18.42;60.56;96866.22;6117713;23;20260;-86
2023/08/13 05:32:28;;;;;;;;;;;;;;;;;;;;;
2023/08/13 05:36:13;;;;;;;;;;;19.20;66.90;;;18.69;60.12;96871.81;5985953;23;19922;-86
2023/08/13 05:43:08;;;;;;;;;;;19.40;66.30;;;18.99;60.10;96879.84;6080465;23;19921;-87
2023/08/13 05:46:11;;;;;;;;;;;19.60;66.10;;;19.06;59.82;96869.19;6109514;23;20533;-87
2023/08/13 05:48:47;;;;;;;;;;;19.70;65.80;;;19.13;59.76;96868.78;6107600;23;19921;-86
2023/08/13 06:16:03;;;;;;;;;;;;;;;;;;;;;
2023/08/13 06:19:38;;;;;;;;;;;;;;;;;;;;;
2023/08/13 06:35:44;;;;;;;;;;;20.40;64.10;;;19.87;58.45;96891.88;6041712;23;19928;-87
2023/08/13 06:38:37;;;;;;;;;;;20.50;64.40;;;19.90;58.46;96882.91;6000664;23;20349;-87
2023/08/13 06:41:20;;;;;;;;;;;20.50;64.20;;;19.96;58.41;96894.72;6106225;23;19925;-87
2023/08/13 06:44:13;;;;;;;;;;;20.50;64.30;;;19.98;58.29;96892.44;6088919;23;19921;-87
2023/08/13 06:47:03;;;;;;;;;;;;;;;;;;;;;
2023/08/13 07:00:41;;;;;;;;;;;20.70;64.20;;;20.13;58.09;96888.47;6065666;23;19921;-86
2023/08/13 07:07:35;;;;;;;;;;;20.70;64.10;;;20.18;58.02;96880.84;6057071;23;19929;-86
2023/08/13 07:11:01;;;;;;;;;;;20.70;64.00;;;20.16;58.34;96880.31;6110733;23;19943;-87
2023/08/13 07:13:51;;;;;;;;;;;20.70;64.00;;;20.19;58.26;96871.34;6109102;23;19928;-87
2023/08/13 07:16:39;;;;;;;;;;;20.80;63.90;;;20.21;58.34;96873.81;6089288;23;19920;-87
2023/08/13 07:19:12;;;;;;;;;;;20.80;64.00;;;20.24;58.14;96876.78;6088223;23;19920;-87
2023/08/13 07:21:49;;;;;;;;;;;20.80;63.90;;;20.22;58.24;96873.47;6110717;23;19921;-87
2023/08/13 07:24:35;;;;;;;;;;;20.80;64.00;;;20.27;58.21;96880.06;6088384;23;19920;-86
2023/08/13 07:27:09;;;;;;;;;;;20.80;64.00;;;20.29;58.19;96880.56;6136839;23;19921;-87
2023/08/13 07:29:46;;;;;;;;;;;20.80;64.10;;;20.30;58.01;96883.03;6110677;23;19920;-86
2023/08/13 07:32:16;;;;;;;;;;;20.90;64.10;;;20.31;58.22;96879.09;6115311;23;19921;-87
2023/08/13 07:34:50;;;;;;;;;;;20.90;64.10;;;20.33;58.23;96884.38;6065090;23;19927;-87
2023/08/13 07:37:52;;;;;;;;;;;20.90;64.90;;;20.34;58.24;96880.41;6112436;23;19928;-87
2023/08/13 07:40:29;;;;;;;;;;;20.90;64.00;;;20.36;58.15;96880.94;6124874;23;19921;-87
2023/08/13 07:43:00;;;;;;;;;;;20.90;64.00;;;20.36;58.07;96875.38;6112537;23;19920;-86
2023/08/13 07:45:35;;;;;;;;;;;21.00;64.10;;;20.38;57.99;96879.50;6111949;23;19921;-87
2023/08/13 07:48:26;;;;;;;;;;;21.00;64.00;;;20.41;58.33;96883.59;6114731;23;19920;-87
2023/08/13 07:51:23;;;;;;;;;;;21.00;63.90;;;20.45;58.26;96883.75;6112486;23;19920;-87
2023/08/13 07:54:04;;;;;;;;;;;21.00;64.00;;;20.48;57.88;96874.78;6137980;23;19928;-87
2023/08/13 07:56:32;;;;;;;;;;;21.00;63.80;;;20.49;58.08;96877.25;6112949;23;19928;-87
2023/08/13 07:59:05;;;;;;;;;;;21.10;63.90;;;20.53;57.99;96874.63;6088562;23;19921;-87
2023/08/13 08:01:36;;;;;;;;;;;21.10;63.80;;;20.52;57.95;96873.03;6119227;23;19920;-87
2023/08/13 08:04:13;;;;;;;;;;;21.10;63.70;;;20.52;57.88;96867.47;6113490;23;19925;-87
2023/08/13 08:06:46;;;;;;;;;;;21.10;63.60;;;20.54;57.84;96867.94;6089323;23;20340;-86
2023/08/13 08:09:17;;;;;;;;;;;21.10;63.60;;;20.53;57.81;96869.06;6112412;23;19925;-86
2023/08/13 08:11:57;;;;;;;;;;;21.10;63.60;;;20.57;57.82;96870.09;6089797;23;19921;-86
2023/08/13 08:14:29;;;;;;;;;;;21.10;63.60;;;20.60;57.76;96868.63;6089380;23;19921;-86
2023/08/13 08:17:07;;;;;;;;;;;21.10;63.50;;;20.62;57.94;96866.34;6088896;23;19921;-86
2023/08/13 08:19:45;;;;;;;;;;;21.20;63.50;;;20.64;57.83;96869.63;6114377;23;19928;-87
2023/08/13 08:22:39;;;;;;;;;;;21.20;63.50;;;20.65;57.60;96872.09;6112757;23;19927;-86
2023/08/13 08:25:34;;;;;;;;;;;21.20;63.40;;;20.68;57.41;96867.84;6115476;23;19931;-86
2023/08/13 08:28:15;;;;;;;;;;;21.20;63.30;;;20.66;57.63;96870.13;6088931;23;19943;-86
2023/08/13 08:30:52;;;;;;;;;;;21.20;63.20;;;20.65;57.74;96860.97;6111586;23;20343;-87
2023/08/13 08:33:50;;;;;;;;;;;21.30;63.20;;;20.68;57.48;96865.06;6089113;23;19920;-87
2023/08/13 08:36:30;;;;;;;;;;;21.30;63.10;;;20.66;57.26;96856.22;6059166;23;19921;-86
2023/08/13 08:39:36;;;;;;;;;;;21.30;62.80;;;20.68;57.00;96859.50;6112309;23;19941;-87
2023/08/13 08:46:43;;;;;;;;;;;;;;;;;;;;;
2023/08/13 08:49:40;;;;;;;;;;;21.30;62.40;;;20.70;56.78;96862.81;6092985;23;19925;-87
2023/08/13 08:55:35;;;;;;;;;;;21.30;62.40;;;20.67;56.62;96860.66;6138047;23;20260;-87
2023/08/13 09:39:41;;;;;;;;;;;21.20;62.70;;;20.57;57.10;96827.56;6138681;23;19927;-87
2023/08/13 09:42:49;;;;;;;;;;;21.20;62.20;;;20.58;56.73;96832.78;6079736;23;19925;-87
2023/08/13 09:45:40;;;;;;;;;;;21.20;62.10;;;20.58;57.21;96821.66;6064335;23;19921;-87
2023/08/13 09:48:14;;;;;;;;;;;21.20;62.70;;;20.59;57.44;96828.06;6083620;23;19928;-87
2023/08/13 09:50:48;;;;;;;;;;;21.30;62.80;;;20.59;57.27;96828.88;6083317;23;19921;-87
2023/08/13 09:53:40;;;;;;;;;;;21.20;62.70;;;20.58;57.45;96831.97;6083302;23;19925;-87
2023/08/13 09:56:25;;;;;;;;;;;21.20;62.70;;;20.57;57.43;96830.34;6083267;23;19928;-87
2023/08/13 10:02:01;;;;;;;;;;;21.20;62.50;;;20.58;56.90;96826.41;6082895;23;19921;-87
2023/08/13 10:04:40;;;;;;;;;;;21.20;62.30;;;20.57;57.14;96819.22;6083459;23;20264;-87
2023/08/13 10:07:23;;;;;;;;;;;21.20;62.40;;;20.58;57.30;96821.66;6059362;23;19928;-87
2023/08/13 10:10:04;;;;;;;;;;;;;;;;;;;;;
2023/08/13 10:13:29;;;;;;;;;;;21.20;62.50;;;20.54;57.29;96812.31;6108668;23;19921;-87
2023/08/13 10:16:08;;;;;;;;;;;21.20;62.60;;;20.52;57.44;96812.63;6083422;23;19921;-87
2023/08/13 10:18:49;;;;;;;;;;;;;;;;;;;;;
2023/08/13 10:25:51;;;;;;;;;;;21.20;62.80;;;20.52;57.50;96812.63;6108138;23;19928;-87
2023/08/13 10:28:31;;;;;;;;;;;21.20;62.90;;;20.51;57.45;96811.00;6089302;23;19921;-87
2023/08/13 10:31:48;;;;;;;;;;;;;;;;;;;;;
2023/08/13 10:34:46;;;;;;;;;;;21.20;62.90;;;20.50;57.44;96803.78;5976650;23;19923;-87
2023/08/13 10:37:23;;;;;;;;;;;21.10;62.90;;;20.49;57.66;96812.47;5968463;24;20170;-87
2023/08/13 10:40:14;;;;;;;;;;;21.10;63.00;;;20.45;57.71;96801.16;5973023;23;20321;-87
2023/08/13 10:46:22;;;;;;;;;;;21.10;63.20;;;20.43;57.67;96792.31;6019680;23;19922;-87
2023/08/13 10:49:24;;;;;;;;;;;;;;;;;;;;;
2023/08/13 10:52:19;;;;;;;;;;;21.10;63.30;;;20.42;57.76;96787.91;6136650;23;19920;-87
2023/08/13 10:54:58;;;;;;;;;;;21.10;63.30;;;20.43;58.26;96785.91;6112022;23;19936;-87
2023/08/13 10:57:33;;;;;;;;;;;21.10;63.30;;;20.44;58.03;96785.63;6112242;23;20252;-87
2023/08/13 11:00:16;;;;;;;;;;;21.10;63.40;;;20.43;58.12;96786.75;6112336;23;19921;-87
2023/08/13 11:03:00;;;;;;;;;;;21.10;63.50;;;20.44;57.74;96776.44;6088342;23;19921;-87
2023/08/13 11:05:47;;;;;;;;;;;21.10;63.30;;;20.45;58.04;96778.91;6112154;23;19927;-87
2023/08/13 11:08:23;;;;;;;;;;;21.10;63.50;;;20.45;58.04;96789.22;6112159;23;19932;-87
2023/08/13 11:10:54;;;;;;;;;;;21.10;63.50;;;20.44;58.06;96788.41;6135471;23;19920;-87
2023/08/13 11:13:37;;;;;;;;;;;21.10;63.50;;;20.43;57.82;96775.63;6090628;23;19927;-87
2023/08/13 11:16:08;;;;;;;;;;;21.10;63.20;;;20.43;57.55;96780.34;6113507;23;19920;-87
2023/08/13 11:18:43;;;;;;;;;;;21.10;63.20;;;20.44;57.86;96779.22;6113510;23;19920;-87
2023/08/13 11:21:15;;;;;;;;;;;21.10;63.30;;;20.43;58.04;96778.41;6089549;23;19920;-87
2023/08/13 11:23:45;;;;;;;;;;;21.10;63.50;;;20.44;57.98;96770.88;6113136;23;19920;-87
2023/08/13 11:26:20;;;;;;;;;;;21.00;63.50;;;20.42;58.17;96767.59;6113374;23;20329;-87
2023/08/13 11:28:51;;;;;;;;;;;21.10;63.60;;;20.41;58.22;96772.34;6089719;23;20360;-87
2023/08/13 11:31:25;;;;;;;;;;;21.00;63.50;;;20.39;58.12;96760.72;6088733;23;19928;-87
2023/08/13 11:34:13;;;;;;;;;;;21.00;63.50;;;20.38;58.01;96756.31;6089297;23;19928;-87
2023/08/13 11:36:45;;;;;;;;;;;21.00;63.40;;;20.37;58.08;96763.84;6136765;23;19984;-87
2023/08/13 11:39:17;;;;;;;;;;;21.00;63.50;;;20.36;58.00;96755.78;6089716;23;19943;-87
2023/08/13 11:41:46;;;;;;;;;;;21.00;63.50;;;20.37;58.07;96763.84;6112464;23;19921;-87
2023/08/13 11:44:30;;;;;;;;;;;;;;;;;;;;;
2023/08/13 11:47:04;;;;;;;;;;;21.00;63.60;;;20.35;58.15;96762.50;6112123;23;19928;-87
2023/08/13 11:49:41;;;;;;;;;;;21.00;63.70;;;20.34;58.27;96755.28;6089044;23;20229;-87
2023/08/13 11:52:15;;;;;;;;;;;21.00;63.70;;;20.33;58.13;96753.69;6112666;23;19928;-87
2023/08/13 11:54:53;;;;;;;;;;;21.00;63.80;;;20.35;58.25;96754.16;6113439;23;19920;-87
2023/08/13 11:57:21;;;;;;;;;;;21.00;63.80;;;20.34;58.35;96760.84;6088925;23;19921;-87
2023/08/13 12:00:04;;;;;;;;;;;21.00;63.80;;;20.34;58.20;96758.06;6090683;23;19921;-87
2023/08/13 12:03:31;;;;;;;;;;;21.00;63.90;;;20.32;58.55;96760.38;6103844;23;19927;-87
2023/08/13 12:06:07;;;;;;;;;;;21.00;63.90;;;20.31;58.63;96761.50;6088984;23;19921;-87
2023/08/13 12:08:46;;;;;;;;;;;21.00;64.00;;;20.32;58.39;96752.03;6089792;23;19921;-87
2023/08/13 12:11:19;;;;;;;;;;;21.00;64.00;;;20.31;58.61;96755.97;6089087;23;19920;-87
2023/08/13 12:14:03;;;;;;;;;;;21.00;64.00;;;20.29;58.64;96747.91;6111624;23;19928;-87
2023/08/13 12:16:41;;;;;;;;;;;21.00;64.10;;;20.29;58.58;96747.91;6089343;23;19920;-87
2023/08/13 12:19:19;;;;;;;;;;;21.00;64.10;;;20.29;58.75;96755.44;6112775;23;19921;-87
2023/08/13 12:21:55;;;;;;;;;;;20.90;64.10;;;20.31;58.62;96753.97;6088309;23;19921;-88
2023/08/13 12:24:30;;;;;;;;;;;21.00;64.10;;;20.31;58.60;96750.41;6112953;23;20341;-87
2023/08/13 12:27:17;;;;;;;;;;;;;;;;;;;;;
2023/08/13 12:30:17;;;;;;;;;;;21.00;64.10;;;20.33;58.19;96748.94;6087848;23;19928;-87
2023/08/13 12:32:56;;;;;;;;;;;21.00;63.70;;;20.33;58.37;96754.47;6112787;23;19927;-87
2023/08/13 12:35:29;;;;;;;;;;;21.00;64.10;;;20.35;58.69;96751.38;6089357;23;19920;-87
2023/08/13 12:38:03;;;;;;;;;;;21.00;64.00;;;20.36;58.44;96741.88;6088820;23;19936;-87
2023/08/13 12:40:55;;;;;;;;;;;21.00;64.10;;;20.34;58.24;96728.31;6090569;23;20362;-88
2023/08/13 12:43:31;;;;;;;;;;;21.00;63.90;;;20.37;58.35;96732.41;6112767;23;19924;-87
2023/08/13 12:46:05;;;;;;;;;;;21.00;64.00;;;20.35;58.57;96726.34;6089014;23;19920;-87
2023/08/13 12:48:35;;;;;;;;;;;21.00;63.90;;;20.34;58.57;96727.47;6113008;23;19928;-87
2023/08/13 12:51:16;;;;;;;;;;;21.00;64.00;;;20.33;58.47;96725.88;6088172;23;20263;-87
2023/08/13 12:54:00;;;;;;;;;;;21.00;64.00;;;20.34;58.54;96730.25;6088315;23;19943;-87
2023/08/13 12:56:38;;;;;;;;;;;21.00;64.00;;;20.32;58.45;96733.38;6090024;23;19921;-87
2023/08/13 12:59:13;;;;;;;;;;;21.00;64.00;;;20.30;58.54;96727.31;6112581;23;20241;-87
2023/08/13 13:02:06;;;;;;;;;;;21.00;64.10;;;20.30;58.68;96720.94;6090257;23;19927;-87
2023/08/13 13:04:42;;;;;;;;;;;21.00;64.10;;;20.30;58.64;96723.72;6089699;23;19928;-87
2023/08/13 13:07:13;;;;;;;;;;;21.00;64.20;;;20.30;58.69;96724.53;6088393;23;19927;-87
2023/08/13 13:10:01;;;;;;;;;;;21.00;64.10;;;20.30;58.65;96715.38;6112658;23;20336;-87
2023/08/13 13:12:44;;;;;;;;;;;;;;;;;;;;;
2023/08/13 13:15:16;;;;;;;;;;;21.00;64.20;;;20.28;58.55;96706.53;6088960;23;20316;-87
2023/08/13 13:17:45;;;;;;;;;;;20.90;64.20;;;20.29;58.71;96713.75;6112040;23;19928;-87
2023/08/13 13:20:24;;;;;;;;;;;21.00;64.30;;;20.29;58.83;96702.63;6090383;23;19940;-87
2023/08/13 13:23:03;;;;;;;;;;;21.00;64.20;;;20.30;58.74;96704.25;6112162;23;19920;-87
2023/08/13 13:25:40;;;;;;;;;;;21.00;64.20;;;20.29;58.06;96699.84;6088286;23;19928;-87
2023/08/13 13:28:28;;;;;;;;;;;21.00;63.50;;;20.30;58.39;96704.25;6112445;23;19921;-87
2023/08/13 13:31:07;;;;;;;;;;;21.00;64.10;;;20.31;58.49;96694.78;6137316;23;19921;-87
2023/08/13 13:33:41;;;;;;;;;;;21.00;64.20;;;20.31;58.59;96705.91;6088420;23;19932;-87
2023/08/13 13:36:18;;;;;;;;;;;21.00;64.10;;;20.31;58.49;96705.91;6088430;23;19928;-87
2023/08/13 13:41:46;;;;;;;;;;;21.00;64.00;;;20.32;58.33;96702.78;6083656;23;19925;-87
2023/08/13 13:44:19;;;;;;;;;;;21.00;64.00;;;20.29;58.41;96691.50;6084487;23;19921;-87
2023/08/13 13:46:48;;;;;;;;;;;21.00;64.00;;;20.30;58.61;96699.50;6107133;23;19944;-87
2023/08/13 13:49:25;;;;;;;;;;;21.00;64.00;;;20.31;58.51;96697.56;6085633;23;19928;-87
2023/08/13 13:51:56;;;;;;;;;;;21.00;64.00;;;20.30;58.53;96693.94;6084039;23;19932;-87
2023/08/13 13:54:36;;;;;;;;;;;21.00;64.00;;;20.30;58.66;96690.38;6084001;23;19921;-87
2023/08/13 13:57:08;;;;;;;;;;;21.00;64.00;;;20.31;58.54;96692.00;6083673;23;19925;-87
2023/08/13 13:59:54;;;;;;;;;;;;;;;;;;;;;
2023/08/13 14:02:30;;;;;;;;;;;21.00;64.00;;;20.31;58.33;96690.03;6107279;23;19928;-87
2023/08/13 14:05:10;;;;;;;;;;;21.00;63.90;;;20.30;58.34;96693.94;6083649;23;19928;-87
2023/08/13 14:07:43;;;;;;;;;;;21.00;63.90;;;20.29;58.59;96686.75;6108245;23;19928;-87
2023/08/13 14:10:17;;;;;;;;;;;21.00;64.10;;;20.30;58.60;96693.94;6084333;23;19928;-87
2023/08/13 14:12:53;;;;;;;;;;;21.00;64.10;;;20.31;58.59;96694.78;6083326;23;19943;-87
2023/08/13 14:15:32;;;;;;;;;;;21.00;64.10;;;20.32;58.43;96693.66;6084033;23;19948;-87
2023/08/13 14:18:13;;;;;;;;;;;21.00;64.10;;;20.30;58.39;96690.38;6083769;23;19921;-87
2023/08/13 14:20:51;;;;;;;;;;;20.90;64.10;;;20.31;58.64;96689.22;6106963;23;19921;-88
2023/08/13 14:23:19;;;;;;;;;;;21.00;64.10;;;20.32;58.70;96686.13;6082942;23;19928;-87
2023/08/13 14:26:06;;;;;;;;;;;21.00;64.00;;;20.32;58.35;96690.88;6107797;23;20424;-87
2023/08/13 14:28:41;;;;;;;;;;;21.00;64.00;;;20.34;58.50;96694.97;6083854;23;19925;-87
2023/08/13 14:31:26;;;;;;;;;;;21.00;64.00;;;20.30;58.64;96691.16;6108830;23;19921;-87
2023/08/13 14:33:59;;;;;;;;;;;21.00;64.10;;;20.33;58.46;96686.94;6106923;23;19928;-87
2023/08/13 14:36:50;;;;;;;;;;;21.00;64.10;;;20.31;58.36;96686.44;6108956;23;19944;-87
2023/08/13 14:39:21;;;;;;;;;;;21.00;64.10;;;20.34;58.49;96685.78;6083162;23;19921;-87
2023/08/13 14:42:06;;;;;;;;;;;21.00;64.00;;;20.34;58.51;96688.56;6123371;23;20256;-87
2023/08/13 14:44:40;;;;;;;;;;;21.00;64.00;;;20.32;58.46;96688.09;6088139;23;19936;-87
2023/08/13 14:47:14;;;;;;;;;;;21.00;64.00;;;20.34;58.59;96685.78;6112307;23;20351;-87
2023/08/13 14:50:19;;;;;;;;;;;21.00;64.00;;;20.30;58.56;96682.03;6078129;23;19920;-87
2023/08/13 14:52:58;;;;;;;;;;;21.00;64.10;;;20.32;58.45;96690.88;6089189;23;20331;-87
2023/08/13 14:55:30;;;;;;;;;;;21.00;64.10;;;20.31;58.61;96686.44;6088019;23;19958;-87
2023/08/13 14:58:01;;;;;;;;;;;21.00;64.10;;;20.29;58.65;96683.16;6088342;23;19943;-87
2023/08/13 15:00:41;;;;;;;;;;;21.00;64.20;;;20.29;58.68;96683.16;6111922;23;19927;-87
2023/08/13 15:03:15;;;;;;;;;;;21.00;64.20;;;20.32;58.63;96693.66;6088661;23;19928;-87
2023/08/13 15:05:57;;;;;;;;;;;21.00;64.30;;;20.31;58.77;96686.44;6088135;23;20344;-87
2023/08/13 15:09:09;;;;;;;;;;;;;;;;;;;;;
2023/08/13 15:12:18;;;;;;;;;;;21.00;64.30;;;20.32;58.75;96685.31;6107418;23;19921;-87
2023/08/13 15:14:46;;;;;;;;;;;21.00;64.30;;;20.31;58.51;96678.09;6135144;23;19944;-87
2023/08/13 15:17:19;;;;;;;;;;;21.00;64.30;;;20.32;58.58;96685.31;6087930;23;19924;-87
2023/08/13 15:19:57;;;;;;;;;;;21.00;64.20;;;20.33;58.43;96681.38;6113068;23;19920;-87
2023/08/13 15:22:27;;;;;;;;;;;21.00;64.20;;;20.32;58.48;96680.56;6087762;23;19921;-87
2023/08/13 15:24:58;;;;;;;;;;;21.00;64.20;;;20.32;58.48;96691.66;6112168;23;19932;-87
2023/08/13 15:27:30;;;;;;;;;;;21.00;64.20;;;20.31;58.86;96678.09;6111585;23;19927;-87
2023/08/13 15:30:04;;;;;;;;;;;21.00;64.30;;;20.32;58.69;96686.13;6088957;23;19928;-87
2023/08/13 15:32:45;;;;;;;;;;;21.00;64.30;;;20.30;58.68;96682.03;6111760;23;19920;-87
2023/08/13 15:35:18;;;;;;;;;;;20.90;64.30;;;20.31;59.00;96683.66;6087256;23;19928;-87
2023/08/13 15:37:51;;;;;;;;;;;21.00;64.30;;;20.30;58.75;96687.59;6088494;23;20363;-87
2023/08/13 15:40:22;;;;;;;;;;;21.00;64.40;;;20.28;58.63;96690.66;6111183;23;19921;-87
2023/08/13 15:42:58;;;;;;;;;;;20.90;64.40;;;20.29;58.80;96689.53;6105222;23;19932;-87
2023/08/13 15:45:29;;;;;;;;;;;20.90;64.50;;;20.29;58.86;96689.53;6082925;23;19921;-87
2023/08/13 15:48:02;;;;;;;;;;;20.90;64.40;;;20.29;58.79;96691.50;6083336;23;19921;-87
2023/08/13 15:50:31;;;;;;;;;;;20.90;64.40;;;20.28;58.76;96689.88;6082959;23;19928;-87
2023/08/13 15:53:05;;;;;;;;;;;20.90;64.50;;;20.26;58.82;96692.97;6106794;23;19921;-87
2023/08/13 15:55:34;;;;;;;;;;;20.90;64.50;;;20.28;58.99;96692.66;6106729;23;19921;-85
2023/08/13 15:58:07;;;;;;;;;;;21.00;64.60;;;20.28;58.97;96695.44;6083277;23;20387;-85
2023/08/13 16:00:38;;;;;;;;;;;20.90;64.50;;;20.27;58.88;96693.78;6108069;23;19947;-85
2023/08/13 16:03:10;;;;;;;;;;;20.90;64.50;;;20.29;58.81;96697.06;6107649;23;20366;-85
2023/08/13 16:05:40;;;;;;;;;;;20.90;64.60;;;20.25;59.01;96691.34;6084309;23;19925;-85
2023/08/13 16:08:11;;;;;;;;;;;20.90;64.60;;;20.27;59.07;96696.56;6084851;23;19921;-85
2023/08/13 16:10:44;;;;;;;;;;;20.90;64.60;;;20.26;58.82;96692.13;6107153;23;19950;-85
2023/08/13 16:16:34;;;;;;;;;;;20.90;64.60;;;20.24;59.09;96693.28;6082486;23;19936;-87
2023/08/13 16:19:30;;;;;;;;;;;20.90;64.70;;;20.27;58.90;96693.78;6107355;23;19928;-87
2023/08/13 16:22:12;;;;;;;;;;;20.90;64.70;;;20.24;59.03;96689.69;6070701;23;19928;-87
2023/08/13 16:24:49;;;;;;;;;;;20.90;64.80;;;20.24;59.08;96698.84;6083865;23;20358;-87
2023/08/13 16:27:18;;;;;;;;;;;20.90;64.80;;;20.22;59.22;96691.97;6084437;23;19932;-87
2023/08/13 16:30:30;;;;;;;;;;;20.90;64.90;;;20.20;59.14;96689.50;6107683;23;19941;-87
2023/08/13 16:33:11;;;;;;;;;;;20.90;65.00;;;20.22;59.31;96697.53;5996350;23;19939;-87
2023/08/13 16:35:52;;;;;;;;;;;20.80;65.70;;;20.20;59.27;96694.25;6084306;23;19921;-87
2023/08/13 16:38:26;;;;;;;;;;;20.80;64.90;;;20.20;59.40;96694.25;6107299;23;20268;-87
2023/08/13 16:41:02;;;;;;;;;;;20.80;64.90;;;20.19;59.40;96687.88;6087331;23;19921;-87
2023/08/13 16:43:42;;;;;;;;;;;20.80;65.00;;;20.19;59.30;96687.03;6138069;23;20243;-87
2023/08/13 16:46:33;;;;;;;;;;;;;;;;;;;;;
2023/08/13 16:49:31;;;;;;;;;;;;;;;;;;;;;
2023/08/13 16:52:37;;;;;;;;;;;20.80;65.10;;;20.18;59.73;96694.59;6112056;23;19921;-87
2023/08/13 16:55:20;;;;;;;;;;;20.80;65.20;;;20.16;59.56;96691.28;6112023;23;20279;-87
2023/08/13 17:01:23;;;;;;;;;;;20.80;65.30;;;20.16;59.51;96699.63;6113211;23;19921;-87
2023/08/13 17:04:10;;;;;;;;;;;20.80;65.30;;;20.15;59.50;96698.00;6089227;23;19928;-87
2023/08/13 17:06:48;;;;;;;;;;;20.80;65.40;;;20.13;59.56;96699.47;6113115;23;19955;-87
2023/08/13 17:09:37;;;;;;;;;;;20.80;65.40;;;20.14;59.76;96696.34;6092367;23;19921;-87
2023/08/13 17:12:35;;;;;;;;;;;20.80;65.40;;;20.13;59.72;96705.84;6089499;23;19921;-87
2023/08/13 17:16:16;;;;;;;;;;;20.80;65.50;;;20.14;59.84;96706.66;6112567;23;19927;-87
2023/08/13 17:22:47;;;;;;;;;;;20.70;65.70;;;20.14;62.09;96713.03;6108978;23;19920;-87
2023/08/13 17:25:55;;;;;;;;;;;20.70;68.10;;;20.16;62.37;96721.03;6088975;23;19931;-87
2023/08/13 17:28:42;;;;;;;;;;;;;;;;;;;;;
2023/08/13 17:31:13;;;;;;;;;;;20.80;68.10;;;20.13;61.90;96716.94;6088086;23;19928;-87
2023/08/13 17:34:02;;;;;;;;;;;20.70;67.90;;;20.13;61.62;96722.50;6112682;23;19921;-87
2023/08/13 17:36:48;;;;;;;;;;;20.70;67.70;;;20.11;62.31;96730.34;6112544;23;19921;-87
2023/08/13 17:39:17;;;;;;;;;;;20.70;68.50;;;20.06;62.27;96727.72;6112350;23;19920;-87
2023/08/13 17:41:52;;;;;;;;;;;20.70;68.40;;;20.05;62.40;96726.06;6083022;23;19921;-87
2023/08/13 17:44:27;;;;;;;;;;;20.70;68.40;;;20.01;62.24;96733.41;6107109;23;19921;-87
2023/08/13 17:47:08;;;;;;;;;;;;;;;;;;;;;
2023/08/13 17:50:36;;;;;;;;;;;;;;;;;;;;;
2023/08/13 17:53:40;;;;;;;;;;;20.50;69.40;;;19.90;62.33;96747.56;6094147;23;20333;-87
2023/08/13 17:59:21;;;;;;;;;;;20.40;68.50;;;19.83;62.34;96741.59;6096415;23;20234;-87
2023/08/13 18:02:40;;;;;;;;;;;;;;;;;;;;;
2023/08/13 18:05:36;;;;;;;;;;;20.40;68.60;;;19.74;62.26;96751.84;6084941;23;19921;-87
2023/08/13 18:08:44;;;;;;;;;;;20.40;68.60;;;19.71;62.30;96755.25;6084889;23;19921;-87
2023/08/13 18:11:49;;;;;;;;;;;20.40;68.60;;;19.70;62.03;96754.44;6101222;23;19921;-87
2023/08/13 18:15:01;;;;;;;;;;;20.30;68.50;;;19.68;62.18;96758.69;6083370;23;19925;-87
2023/08/13 18:18:12;;;;;;;;;;;;;;;;;;;;;
2023/08/13 18:21:40;;;;;;;;;;;20.30;68.50;;;19.65;62.13;96753.75;6079750;23;20241;-87
2023/08/13 18:24:56;;;;;;;;;;;;;;;;;;;;;
2023/08/13 18:27:39;;;;;;;;;;;20.30;68.50;;;19.63;62.28;96760.44;6084002;23;19921;-87
2023/08/13 18:30:44;;;;;;;;;;;20.20;68.20;;;19.58;61.88;96763.34;6107553;23;19921;-87
2023/08/13 18:33:21;;;;;;;;;;;20.20;68.30;;;19.60;61.82;96776.94;6001723;23;20353;-88
2023/08/13 18:35:53;;;;;;;;;;;20.20;68.20;;;19.56;62.00;96765.59;6004176;23;19922;-88
2023/08/13 18:38:35;;;;;;;;;;;20.20;68.20;;;19.55;62.09;96765.94;6107782;23;19921;-87
2023/08/13 18:41:06;;;;;;;;;;;20.20;68.20;;;19.57;62.08;96777.56;6110107;23;19921;-87
2023/08/13 18:43:38;;;;;;;;;;;20.20;68.40;;;19.55;62.03;96775.09;6087903;23;20256;-87
2023/08/13 18:46:13;;;;;;;;;;;20.20;68.10;;;19.56;61.70;96782.25;6087972;23;19921;-87
2023/08/13 18:48:42;;;;;;;;;;;20.20;68.00;;;19.52;61.67;96769.31;6088497;23;20248;-87
2023/08/13 18:51:32;;;;;;;;;;;20.20;67.80;;;19.52;61.82;96777.66;6087832;23;19943;-87
2023/08/13 18:54:01;;;;;;;;;;;20.20;67.80;;;19.52;62.00;96781.28;6088334;23;19920;-87
2023/08/13 18:56:30;;;;;;;;;;;20.20;67.80;;;19.50;61.47;96777.16;6112381;23;19925;-87
2023/08/13 18:59:03;;;;;;;;;;;20.20;67.70;;;19.49;61.65;96793.00;6088075;23;19928;-87
2023/08/13 19:01:36;;;;;;;;;;;20.10;67.80;;;19.46;61.88;96783.34;6135621;23;20225;-87
2023/08/13 19:04:28;;;;;;;;;;;20.10;67.80;;;19.47;61.69;96789.72;6095777;23;19936;-87
2023/08/13 19:07:05;;;;;;;;;;;20.10;67.80;;;19.47;61.76;96789.72;6112353;23;19932;-87
2023/08/13 19:09:38;;;;;;;;;;;20.10;67.90;;;19.47;61.80;96796.09;6088003;23;19920;-87
2023/08/13 19:12:12;;;;;;;;;;;20.10;67.80;;;19.48;61.87;96791.34;6087717;23;19920;-87
2023/08/13 19:14:49;;;;;;;;;;;20.10;67.90;;;19.50;61.90;96794.66;6112519;23;19928;-87
2023/08/13 19:17:53;;;;;;;;;;;20.10;67.90;;;19.50;62.01;96794.66;6086831;23;20256;-87
2023/08/13 19:20:32;;;;;;;;;;;20.10;68.80;;;19.49;61.74;96803.31;6112006;23;19921;-87
2023/08/13 19:23:20;;;;;;;;;;;20.10;67.90;;;19.50;61.85;96805.75;6111585;23;19921;-87
2023/08/13 19:26:09;;;;;;;;;;;20.20;67.80;;;19.46;61.75;96805.56;6111787;23;19924;-87
2023/08/13 19:28:59;;;;;;;;;;;20.10;67.80;;;19.46;61.63;96813.91;6089421;23;19921;-87